createdAt,value
2022-09-03T00:02:33.734Z,99.90
2022-09-03T00:05:19.145Z,99.90
2022-09-03T00:07:56.333Z,99.90
2022-09-03T00:10:47.314Z,99.90
2022-09-03T00:13:23.183Z,99.90
2022-09-03T00:15:55.248Z,99.90
2022-09-03T00:18:29.630Z,99.90
2022-09-03T00:21:15.117Z,99.90
2022-09-03T00:23:46.760Z,99.90
2022-09-03T00:26:26.085Z,99.90
2022-09-03T00:29:13.666Z,99.90
2022-09-03T00:31:47.865Z,99.90
2022-09-03T00:34:31.129Z,99.90
2022-09-03T00:36:59.235Z,99.90
2022-09-03T00:39:28.053Z,99.90
2022-09-03T00:42:23.781Z,99.90
2022-09-03T00:45:18.745Z,99.90
2022-09-03T00:48:05.277Z,99.90
2022-09-03T00:50:49.886Z,99.90
2022-09-03T00:53:39.561Z,99.90
2022-09-03T00:56:35.473Z,99.90
2022-09-03T00:59:15.317Z,99.90
2022-09-03T01:01:55.649Z,99.90
2022-09-03T01:04:45.046Z,99.90
2022-09-03T01:07:40.913Z,99.90
2022-09-03T01:10:19.273Z,99.90
2022-09-03T01:13:00.512Z,99.90
2022-09-03T01:15:42.588Z,99.90
2022-09-03T01:18:34.845Z,99.90
2022-09-03T01:21:24.425Z,99.90
2022-09-03T01:24:23.817Z,99.90
2022-09-03T01:27:11.149Z,99.90
2022-09-03T01:29:54.115Z,99.90
2022-09-03T01:32:29.511Z,99.90
2022-09-03T01:35:19.912Z,99.90
2022-09-03T01:38:18.220Z,99.90
2022-09-03T01:41:24.470Z,99.90
2022-09-03T01:44:16.989Z,99.90
2022-09-03T01:46:51.093Z,99.90
2022-09-03T01:49:37.946Z,99.90
2022-09-03T01:52:16.241Z,99.90
2022-09-03T01:55:06.338Z,99.90
2022-09-03T01:57:47.822Z,99.90
2022-09-03T02:00:21.506Z,99.90
2022-09-03T02:02:51.682Z,99.90
2022-09-03T02:05:35.433Z,99.90
2022-09-03T02:08:06.908Z,99.90
2022-09-03T02:10:52.366Z,99.90
2022-09-03T02:13:25.956Z,99.90
2022-09-03T02:15:56.485Z,99.90
2022-09-03T02:18:31.269Z,99.90
2022-09-03T02:21:01.289Z,99.90
2022-09-03T02:23:29.936Z,99.90
2022-09-03T02:26:10.789Z,99.90
2022-09-03T02:31:06.492Z,99.90
2022-09-03T02:33:38.578Z,99.90
2022-09-03T02:36:08.904Z,99.90
2022-09-03T02:38:36.796Z,99.90
2022-09-03T02:41:04.333Z,99.90
2022-09-03T02:43:46.260Z,99.90
2022-09-03T02:46:21.656Z,99.90
2022-09-03T02:48:49.528Z,99.90
2022-09-03T02:51:17.021Z,99.90
2022-09-03T02:53:46.196Z,99.90
2022-09-03T02:56:14.134Z,99.90
2022-09-03T02:58:41.605Z,99.90
2022-09-03T03:01:09.058Z,99.90
2022-09-03T03:03:36.623Z,99.90
2022-09-03T03:06:05.980Z,99.90
2022-09-03T03:08:35.297Z,99.90
2022-09-03T03:11:02.835Z,99.90
2022-09-03T03:13:31.606Z,99.90
2022-09-03T03:16:03.313Z,99.90
2022-09-03T03:18:31.092Z,99.90
2022-09-03T03:21:03.401Z,99.90
2022-09-03T03:23:32.922Z,99.90
2022-09-03T03:26:06.413Z,99.90
2022-09-03T03:28:35.442Z,99.90
2022-09-03T03:31:11.750Z,99.90
2022-09-03T03:33:40.208Z,99.90
2022-09-03T03:36:11.917Z,99.90
2022-09-03T03:38:40.788Z,99.90
2022-09-03T03:41:11.540Z,99.90
2022-09-03T03:43:39.429Z,99.90
2022-09-03T03:46:07.083Z,99.90
2022-09-03T03:48:34.784Z,99.90
2022-09-03T03:51:05.068Z,99.90
2022-09-03T03:53:35.156Z,99.90
2022-09-03T03:56:08.358Z,99.90
2022-09-03T03:58:36.087Z,99.90
2022-09-03T04:01:09.038Z,99.90
2022-09-03T04:03:38.732Z,99.90
2022-09-03T04:06:07.060Z,99.90
2022-09-03T04:08:36.760Z,99.90
2022-09-03T04:11:06.123Z,99.90
2022-09-03T04:13:37.230Z,99.90
2022-09-03T04:16:08.766Z,99.90
2022-09-03T04:18:38.076Z,99.90
2022-09-03T04:21:09.732Z,99.90
2022-09-03T04:23:40.674Z,99.90
2022-09-03T04:26:12.510Z,99.90
2022-09-03T04:28:42.193Z,99.90
2022-09-03T04:31:12.007Z,99.90
2022-09-03T04:33:41.553Z,99.90
2022-09-03T04:36:11.722Z,99.90
2022-09-03T04:38:41.863Z,99.90
2022-09-03T04:41:12.197Z,99.90
2022-09-03T04:43:40.165Z,99.90
2022-09-03T04:46:16.083Z,99.90
2022-09-03T04:48:51.445Z,99.90
2022-09-03T04:51:22.197Z,99.90
2022-09-03T04:53:56.665Z,99.90
2022-09-03T04:56:29.848Z,99.90
2022-09-03T04:59:00.153Z,99.90
2022-09-03T05:01:37.236Z,99.90
2022-09-03T05:04:07.636Z,99.90
2022-09-03T05:06:36.539Z,99.90
2022-09-03T05:09:06.000Z,99.90
2022-09-03T05:11:34.502Z,99.90
2022-09-03T05:14:03.774Z,99.90
2022-09-03T05:16:31.471Z,99.90
2022-09-03T05:19:01.493Z,99.90
2022-09-03T05:21:29.503Z,99.90
2022-09-03T05:23:57.711Z,99.90
2022-09-03T05:26:31.713Z,99.90
2022-09-03T05:29:01.465Z,99.90
2022-09-03T05:31:32.772Z,99.90
2022-09-03T05:34:03.661Z,99.90
2022-09-03T05:36:36.394Z,99.90
2022-09-03T05:39:05.134Z,99.90
2022-09-03T05:41:34.273Z,99.90
2022-09-03T05:44:02.440Z,99.90
2022-09-03T05:46:35.052Z,99.90
2022-09-03T05:49:07.768Z,99.90
2022-09-03T05:51:36.796Z,99.90
2022-09-03T05:54:04.304Z,99.90
2022-09-03T05:56:33.530Z,99.90
2022-09-03T05:59:03.206Z,99.90
2022-09-03T06:01:33.573Z,99.90
2022-09-03T06:04:04.356Z,99.90
2022-09-03T06:06:34.982Z,99.90
2022-09-03T06:09:07.871Z,99.90
2022-09-03T06:11:37.590Z,99.90
2022-09-03T06:14:09.441Z,95.20
2022-09-03T06:16:40.265Z,80.70
2022-09-03T06:19:09.863Z,74.00
2022-09-03T06:21:40.717Z,83.10
2022-09-03T06:24:09.201Z,63.80
2022-09-03T06:26:36.737Z,68.40
2022-09-03T06:29:07.206Z,60.30
2022-09-03T06:31:35.910Z,59.80
2022-09-03T06:34:04.388Z,58.90
2022-09-03T06:36:32.761Z,58.80
2022-09-03T06:39:00.196Z,56.80
2022-09-03T06:41:32.238Z,51.20
2022-09-03T06:44:03.533Z,54.60
2022-09-03T06:46:35.109Z,53.80
2022-09-03T06:49:02.794Z,67.60
2022-09-03T06:51:33.411Z,61.50
2022-09-03T06:54:04.877Z,60.10
2022-09-03T06:56:38.864Z,54.30
2022-09-03T06:59:10.415Z,45.40
2022-09-03T07:01:43.551Z,46.30
2022-09-03T07:04:16.374Z,48.10
2022-09-03T07:06:45.884Z,49.10
2022-09-03T07:09:15.613Z,49.80
2022-09-03T07:11:48.305Z,45.40
2022-09-03T07:14:18.865Z,40.20
2022-09-03T07:16:48.271Z,43.40
2022-09-03T07:19:16.527Z,49.20
2022-09-03T07:21:49.205Z,42.90
2022-09-03T07:24:20.072Z,49.70
2022-09-03T07:26:49.493Z,49.90
2022-09-03T07:29:20.943Z,49.90
2022-09-03T07:31:54.176Z,40.40
2022-09-03T07:34:25.630Z,49.50
2022-09-03T07:36:54.703Z,48.90
2022-09-03T07:39:24.429Z,44.70
2022-09-03T07:41:51.796Z,36.20
2022-09-03T07:44:20.171Z,29.90
2022-09-03T07:46:51.443Z,27.30
2022-09-03T07:49:21.260Z,26.90
2022-09-03T07:51:52.510Z,27.20
2022-09-03T07:54:24.284Z,33.80
2022-09-03T07:56:54.973Z,34.70
2022-09-03T07:59:24.022Z,30.00
2022-09-03T08:01:54.802Z,28.60
2022-09-03T08:04:24.914Z,25.10
2022-09-03T08:06:55.934Z,31.30
2022-09-03T08:09:23.534Z,28.20
2022-09-03T08:11:51.282Z,26.40
2022-09-03T08:14:19.368Z,26.00
2022-09-03T08:16:48.335Z,24.00
2022-09-03T08:19:18.668Z,20.50
2022-09-03T08:21:46.442Z,19.10
2022-09-03T08:24:16.789Z,23.20
2022-09-03T08:26:51.172Z,20.30
2022-09-03T08:29:19.863Z,21.10
2022-09-03T08:31:47.341Z,25.60
2022-09-03T08:34:19.760Z,29.20
2022-09-03T08:36:48.074Z,29.50
2022-09-03T08:39:18.812Z,19.60
2022-09-03T08:42:19.738Z,15.40
2022-09-03T08:44:56.378Z,15.10
2022-09-03T08:47:34.838Z,17.00
2022-09-03T08:50:25.475Z,26.30
2022-09-03T08:53:15.734Z,24.50
2022-09-03T08:56:00.466Z,15.70
2022-09-03T08:58:31.513Z,14.90
2022-09-03T09:01:32.003Z,25.90
2022-09-03T09:04:36.275Z,25.70
2022-09-03T09:07:27.670Z,20.00
2022-09-03T09:10:19.388Z,15.40
2022-09-03T09:13:04.576Z,11.70
2022-09-03T09:16:04.692Z,19.30
2022-09-03T09:19:00.781Z,23.80
2022-09-03T09:21:40.441Z,31.30
2022-09-03T09:24:22.162Z,26.20
2022-09-03T09:26:55.004Z,23.60
2022-09-03T09:29:22.454Z,27.60
2022-09-03T09:31:50.009Z,27.60
2022-09-03T09:34:17.316Z,32.30
2022-09-03T09:36:55.386Z,30.10
2022-09-03T09:39:23.941Z,30.90
2022-09-03T09:42:11.432Z,21.60
2022-09-03T09:44:41.655Z,18.40
2022-09-03T09:47:21.406Z,13.50
2022-09-03T09:49:59.994Z,11.20
2022-09-03T09:52:32.682Z,10.40
2022-09-03T09:55:10.886Z,10.60
2022-09-03T09:57:39.983Z,10.30
2022-09-03T10:00:16.065Z,9.70
2022-09-03T10:02:51.113Z,9.20
2022-09-03T10:05:28.447Z,7.20
2022-09-03T10:08:00.841Z,4.70
2022-09-03T10:10:31.898Z,8.60
2022-09-03T10:13:09.659Z,13.30
2022-09-03T10:16:06.100Z,11.10
2022-09-03T10:18:53.196Z,6.50
2022-09-03T10:21:32.942Z,4.70
2022-09-03T10:24:16.044Z,5.00
2022-09-03T10:26:50.229Z,9.20
2022-09-03T10:29:25.698Z,5.20
2022-09-03T10:32:23.072Z,7.60
2022-09-03T10:35:21.470Z,7.10
2022-09-03T10:38:16.079Z,9.80
2022-09-03T10:41:11.278Z,15.80
2022-09-03T10:44:01.337Z,18.10
2022-09-03T10:46:36.799Z,18.90
2022-09-03T10:49:29.296Z,19.60
2022-09-03T10:52:12.629Z,19.80
2022-09-03T10:54:57.629Z,20.20
2022-09-03T10:57:42.747Z,17.90
2022-09-03T11:00:13.330Z,22.40
2022-09-03T11:03:13.272Z,22.80
2022-09-03T11:05:54.249Z,19.60
2022-09-03T11:08:31.722Z,16.30
2022-09-03T11:11:22.160Z,9.40
2022-09-03T11:13:56.196Z,4.30
2022-09-03T11:16:34.431Z,6.40
2022-09-03T11:19:07.394Z,6.80
2022-09-03T11:21:45.513Z,2.70
2022-09-03T11:24:24.771Z,3.40
2022-09-03T11:27:15.118Z,5.80
2022-09-03T11:29:54.038Z,15.70
2022-09-03T11:32:29.127Z,7.80
2022-09-03T11:35:04.886Z,2.50
2022-09-03T11:37:35.411Z,7.80
2022-09-03T11:40:17.010Z,17.10
2022-09-03T11:42:46.245Z,18.80
2022-09-03T11:45:39.727Z,20.30
2022-09-03T11:48:37.952Z,21.70
2022-09-03T11:51:33.994Z,22.30
2022-09-03T11:54:13.134Z,22.40
2022-09-03T11:56:42.496Z,23.40
2022-09-03T11:59:27.644Z,23.70
2022-09-03T12:02:17.297Z,23.70
2022-09-03T12:05:19.911Z,20.70
2022-09-03T12:08:13.280Z,19.80
2022-09-03T12:10:52.122Z,21.10
2022-09-03T12:13:48.475Z,21.00
2022-09-03T12:16:46.941Z,14.60
2022-09-03T12:19:35.345Z,7.50
2022-09-03T12:22:05.997Z,3.70
2022-09-03T12:24:38.461Z,4.90
2022-09-03T12:27:06.016Z,5.40
2022-09-03T12:29:40.050Z,5.00
2022-09-03T12:32:11.732Z,3.60
2022-09-03T12:34:42.198Z,5.00
2022-09-03T12:40:21.736Z,6.00
2022-09-03T12:42:51.476Z,5.10
2022-09-03T12:45:24.245Z,4.90
2022-09-03T12:47:53.625Z,4.80
2022-09-03T12:50:31.089Z,8.30
2022-09-03T12:53:03.299Z,9.70
2022-09-03T12:55:40.553Z,13.60
2022-09-03T12:58:21.267Z,18.00
2022-09-03T13:00:59.053Z,20.40
2022-09-03T13:03:49.792Z,20.60
2022-09-03T13:06:31.207Z,20.20
2022-09-03T13:09:02.534Z,18.40
2022-09-03T13:11:41.713Z,15.80
2022-09-03T13:14:18.758Z,17.50
2022-09-03T13:17:02.649Z,20.90
2022-09-03T13:19:57.920Z,20.40
2022-09-03T13:22:57.278Z,12.70
2022-09-03T13:25:50.417Z,7.70
2022-09-03T13:28:48.334Z,5.30
2022-09-03T13:31:47.441Z,7.10
2022-09-03T13:34:29.119Z,5.40
2022-09-03T13:37:17.553Z,5.20
2022-09-03T13:40:00.474Z,8.60
2022-09-03T13:42:45.505Z,4.80
2022-09-03T13:45:36.511Z,8.90
2022-09-03T13:48:51.563Z,13.10
2022-09-03T13:51:33.867Z,12.40
2022-09-03T13:54:48.079Z,11.60
2022-09-03T13:57:41.557Z,8.80
2022-09-03T14:00:16.598Z,5.50
2022-09-03T14:03:10.734Z,5.50
2022-09-03T14:06:05.804Z,4.70
2022-09-03T14:09:19.111Z,3.80
2022-09-03T14:12:10.832Z,6.10
2022-09-03T14:14:52.281Z,8.20
2022-09-03T14:17:54.071Z,5.60
2022-09-03T14:20:30.193Z,7.10
2022-09-03T14:23:28.026Z,12.40
2022-09-03T14:25:58.046Z,12.00
2022-09-03T14:28:40.783Z,9.60
2022-09-03T14:31:27.155Z,15.40
2022-09-03T14:34:27.882Z,21.40
2022-09-03T14:37:23.353Z,22.30
2022-09-03T14:39:56.812Z,24.70
2022-09-03T14:42:47.966Z,17.40
2022-09-03T14:45:39.847Z,10.20
2022-09-03T14:48:27.613Z,16.00
2022-09-03T14:51:27.954Z,22.40
2022-09-03T14:54:23.074Z,24.50
2022-09-03T14:57:02.599Z,26.20
2022-09-03T15:00:03.206Z,27.10
2022-09-03T15:02:53.359Z,26.90
2022-09-03T15:05:52.544Z,28.30
2022-09-03T15:08:43.345Z,28.80
2022-09-03T15:11:22.945Z,29.30
2022-09-03T15:14:05.961Z,29.00
2022-09-03T15:16:56.356Z,28.50
2022-09-03T15:19:54.526Z,27.90
2022-09-03T15:22:38.029Z,27.00
2022-09-03T15:25:25.113Z,27.50
2022-09-03T15:28:19.038Z,27.00
2022-09-03T15:31:01.901Z,30.50
2022-09-03T15:33:37.246Z,40.00
2022-09-03T15:36:23.318Z,43.40
2022-09-03T15:39:04.827Z,45.00
2022-09-03T15:42:06.518Z,44.20
2022-09-03T15:44:52.403Z,46.40
2022-09-03T15:47:51.073Z,51.70
2022-09-03T15:50:40.793Z,47.70
2022-09-03T15:53:34.300Z,48.10
2022-09-03T15:56:18.602Z,50.20
2022-09-03T15:58:59.954Z,51.90
2022-09-03T16:01:48.598Z,50.90
2022-09-03T16:04:36.287Z,50.40
2022-09-03T16:07:18.926Z,49.90
2022-09-03T16:10:23.271Z,50.40
2022-09-03T16:13:07.882Z,51.60
2022-09-03T16:15:43.869Z,52.70
2022-09-03T16:18:33.425Z,53.90
2022-09-03T16:21:23.869Z,54.90
2022-09-03T16:24:10.956Z,55.50
2022-09-03T16:26:52.242Z,57.80
2022-09-03T16:29:28.381Z,57.50
2022-09-03T16:32:22.141Z,59.30
2022-09-03T16:35:03.501Z,60.00
2022-09-03T16:37:57.790Z,60.30
2022-09-03T16:40:41.007Z,63.50
2022-09-03T16:43:40.800Z,67.20
2022-09-03T16:46:33.305Z,70.60
2022-09-03T16:49:27.295Z,70.90
2022-09-03T16:52:12.099Z,74.90
2022-09-03T16:55:00.455Z,77.80
2022-09-03T16:57:59.299Z,78.90
2022-09-03T17:00:49.381Z,80.10
2022-09-03T17:03:48.313Z,82.00
2022-09-03T17:06:43.532Z,82.50
2022-09-03T17:09:50.885Z,86.50
2022-09-03T17:12:40.752Z,87.10
2022-09-03T17:15:34.938Z,89.10
2022-09-03T17:18:31.410Z,88.90
2022-09-03T17:21:19.521Z,91.80
2022-09-03T17:24:04.226Z,94.70
2022-09-03T17:27:04.206Z,96.20
2022-09-03T17:29:56.506Z,98.20
2022-09-03T17:33:03.965Z,99.60
2022-09-03T17:36:05.874Z,99.90
2022-09-03T17:39:00.776Z,99.90
2022-09-03T17:41:46.191Z,99.90
2022-09-03T17:44:48.932Z,99.90
2022-09-03T17:47:42.516Z,99.90
2022-09-03T17:50:26.054Z,99.90
2022-09-03T17:53:03.057Z,99.90
2022-09-03T17:55:42.531Z,99.90
2022-09-03T17:58:31.638Z,99.90
2022-09-03T18:01:13.471Z,99.90
2022-09-03T18:04:05.445Z,99.90
2022-09-03T18:06:53.688Z,99.90
2022-09-03T18:09:49.176Z,99.90
2022-09-03T18:13:03.507Z,99.90
2022-09-03T18:15:48.692Z,99.90
2022-09-03T18:18:33.098Z,99.90
2022-09-03T18:21:26.607Z,99.90
2022-09-03T18:24:21.096Z,96.90
2022-09-03T18:27:20.792Z,95.60
2022-09-03T18:30:16.983Z,97.40
2022-09-03T18:32:59.959Z,96.90
2022-09-03T18:35:47.126Z,97.70
2022-09-03T18:38:31.162Z,99.90
2022-09-03T18:41:32.446Z,97.60
2022-09-03T18:44:40.378Z,96.70
2022-09-03T18:48:05.543Z,95.70
2022-09-03T18:51:04.078Z,97.40
2022-09-03T18:54:15.637Z,97.60
2022-09-03T18:57:04.000Z,97.80
2022-09-03T19:00:17.591Z,97.40
2022-09-03T19:03:35.493Z,99.10
2022-09-03T19:06:53.502Z,99.90
2022-09-03T19:10:14.850Z,99.90
2022-09-03T19:13:22.075Z,99.90
2022-09-03T19:16:25.777Z,99.90
2022-09-03T19:19:43.628Z,99.90
2022-09-03T19:22:39.523Z,99.90
2022-09-03T19:25:28.044Z,99.90
2022-09-03T19:28:25.382Z,99.90
2022-09-03T19:31:39.219Z,99.90
2022-09-03T19:34:41.521Z,99.90
2022-09-03T19:37:37.565Z,99.90
2022-09-03T19:40:47.195Z,99.90
2022-09-03T19:43:57.817Z,99.90
2022-09-03T19:47:01.551Z,99.90
2022-09-03T19:50:14.590Z,99.90
2022-09-03T19:53:06.566Z,99.90
2022-09-03T19:56:05.176Z,99.90
2022-09-03T19:59:04.238Z,99.90
2022-09-03T20:01:53.218Z,99.90
2022-09-03T20:04:45.190Z,99.90
2022-09-03T20:20:50.142Z,99.90
2022-09-03T20:23:41.550Z,99.90
2022-09-03T20:29:25.634Z,99.90
2022-09-03T20:34:58.309Z,99.90
2022-09-03T20:40:28.961Z,99.90
2022-09-03T20:43:20.572Z,99.90
2022-09-03T20:46:18.896Z,99.90
2022-09-03T21:18:29.548Z,99.90
2022-09-03T21:21:31.819Z,99.90
2022-09-03T21:37:00.006Z,99.90
2022-09-03T21:42:30.018Z,99.90
2022-09-03T21:53:04.155Z,99.90
2022-09-03T22:08:32.049Z,99.90
2022-09-03T22:14:02.751Z,99.90
2022-09-03T23:32:17.862Z,99.90
